createdAt,value
2019-04-28T00:01:40.880Z,100895.89
2019-04-28T00:04:11.553Z,100893.67
2019-04-28T00:06:41.813Z,100899.41
2019-04-28T00:09:12.656Z,100897.13
2019-04-28T00:11:42.573Z,100897.50
2019-04-28T00:14:12.872Z,100894.05
2019-04-28T00:16:42.822Z,100906.22
2019-04-28T00:19:12.799Z,100909.26
2019-04-28T00:21:57.559Z,100910.45
2019-04-28T00:24:46.313Z,100916.70
2019-04-28T00:27:17.405Z,100910.91
2019-04-28T00:29:47.291Z,100915.14
2019-04-28T00:32:17.290Z,100914.37
2019-04-28T00:34:47.255Z,100912.59
2019-04-28T00:37:23.827Z,100915.11
2019-04-28T00:39:53.737Z,100919.51
2019-04-28T00:42:23.636Z,100916.83
2019-04-28T00:44:53.578Z,100917.90
2019-04-28T00:47:23.804Z,100912.57
2019-04-28T00:49:53.825Z,100912.02
2019-04-28T00:52:23.760Z,100908.56
2019-04-28T00:54:53.981Z,100915.02
2019-04-28T00:57:24.044Z,100918.13
2019-04-28T00:59:58.450Z,100919.89
2019-04-28T01:02:31.345Z,100916.83
2019-04-28T01:05:01.778Z,100924.23
2019-04-28T01:07:33.067Z,100920.30
2019-04-28T01:10:03.443Z,100922.18
2019-04-28T01:12:33.484Z,100927.39
2019-04-28T01:15:04.922Z,100926.98
2019-04-28T01:17:49.672Z,100928.23
2019-04-28T01:20:19.853Z,100926.19
2019-04-28T01:22:49.766Z,100936.47
2019-04-28T01:25:20.356Z,100937.83
2019-04-28T01:27:53.105Z,100951.84
2019-04-28T01:30:59.883Z,100946.09
2019-04-28T01:33:57.415Z,100950.48
2019-04-28T01:36:27.302Z,100954.83
2019-04-28T01:38:57.165Z,100941.38
2019-04-28T01:41:27.064Z,100943.11
2019-04-28T01:43:56.935Z,100950.94
2019-04-28T01:46:26.829Z,100959.59
2019-04-28T01:48:56.725Z,100953.58
2019-04-28T01:51:26.701Z,100963.09
2019-04-28T01:53:56.582Z,100963.17
2019-04-28T01:56:26.439Z,100963.94
2019-04-28T01:58:56.388Z,100960.02
2019-04-28T02:01:26.333Z,100967.03
2019-04-28T02:03:56.353Z,100973.22
2019-04-28T02:06:26.230Z,100975.36
2019-04-28T02:08:56.128Z,100984.42
2019-04-28T02:11:26.008Z,100972.63
2019-04-28T02:13:55.890Z,100973.06
2019-04-28T02:16:25.840Z,100986.08
2019-04-28T02:18:55.715Z,100980.13
2019-04-28T02:21:43.199Z,100989.62
2019-04-28T02:24:30.934Z,100991.81
2019-04-28T02:27:01.623Z,100986.98
2019-04-28T02:29:31.993Z,100994.31
2019-04-28T02:32:02.583Z,100987.45
2019-04-28T02:34:32.578Z,100989.17
2019-04-28T02:37:02.460Z,100992.69
2019-04-28T02:39:32.348Z,100987.91
2019-04-28T02:42:02.398Z,100993.94
2019-04-28T02:44:34.933Z,100996.98
2019-04-28T02:47:04.045Z,100998.72
2019-04-28T02:49:40.819Z,101003.87
2019-04-28T02:52:20.561Z,100998.71
2019-04-28T02:54:50.728Z,101000.40
2019-04-28T02:57:21.142Z,101006.48
2019-04-28T02:59:51.186Z,101010.73
2019-04-28T03:02:21.309Z,101005.56
2019-04-28T03:04:51.343Z,101014.17
2019-04-28T03:07:22.007Z,101016.67
2019-04-28T03:09:52.471Z,101021.13
2019-04-28T03:12:22.330Z,101019.89
2019-04-28T03:14:52.211Z,101022.42
2019-04-28T03:17:22.235Z,101027.67
2019-04-28T03:19:52.197Z,101030.70
2019-04-28T03:22:22.134Z,101028.47
2019-04-28T03:24:53.678Z,101035.88
2019-04-28T03:27:31.324Z,101034.99
2019-04-28T03:30:07.250Z,101031.54
2019-04-28T03:32:52.427Z,101037.91
2019-04-28T03:35:13.185Z,101038.39
2019-04-28T03:37:43.404Z,101046.92
2019-04-28T03:40:13.363Z,101040.84
2019-04-28T03:42:43.232Z,101038.39
2019-04-28T03:45:21.151Z,101036.25
2019-04-28T03:47:51.128Z,101043.92
2019-04-28T03:50:21.021Z,101047.95
2019-04-28T03:52:51.256Z,101056.64
2019-04-28T03:55:21.401Z,101057.37
2019-04-28T03:57:51.313Z,101059.18
2019-04-28T04:00:21.990Z,101054.79
2019-04-28T04:02:52.038Z,101063.85
2019-04-28T04:05:21.920Z,101064.67
2019-04-28T04:07:51.792Z,101059.19
2019-04-28T04:10:45.822Z,101060.49
2019-04-28T04:13:23.703Z,101064.37
2019-04-28T04:16:01.880Z,101066.91
2019-04-28T04:18:46.253Z,101073.80
2019-04-28T04:21:16.145Z,101079.27
2019-04-28T04:23:46.038Z,101078.69
2019-04-28T04:26:15.995Z,101083.82
2019-04-28T04:28:45.886Z,101085.86
2019-04-28T04:31:15.774Z,101088.88
2019-04-28T04:33:45.647Z,101089.61
2019-04-28T04:36:15.536Z,101084.09
2019-04-28T04:38:46.426Z,101086.77
2019-04-28T04:41:16.477Z,101093.23
2019-04-28T04:43:46.355Z,101094.39
2019-04-28T04:46:24.302Z,101099.11
2019-04-28T04:48:54.177Z,101100.55
2019-04-28T04:51:24.129Z,101102.28
2019-04-28T04:53:54.005Z,101113.17
2019-04-28T04:56:23.880Z,101128.21
2019-04-28T04:58:54.013Z,101123.74
2019-04-28T05:01:45.705Z,101124.28
2019-04-28T05:04:29.605Z,101130.28
2019-04-28T05:06:59.750Z,101119.95
2019-04-28T05:09:31.124Z,101123.41
2019-04-28T05:12:01.139Z,101119.77
2019-04-28T05:14:31.002Z,101115.84
2019-04-28T05:17:00.984Z,101128.91
2019-04-28T05:19:30.844Z,101144.46
2019-04-28T05:22:00.793Z,101138.94
2019-04-28T05:24:46.240Z,101136.61
2019-04-28T05:27:17.407Z,101143.46
2019-04-28T05:29:51.134Z,101150.84
2019-04-28T05:32:20.572Z,101154.41
2019-04-28T05:34:52.849Z,101166.82
2019-04-28T05:37:22.064Z,101170.42
2019-04-28T05:39:52.552Z,101180.33
2019-04-28T05:42:22.679Z,101187.59
2019-04-28T05:44:52.564Z,101191.94
2019-04-28T05:47:22.492Z,101194.14
2019-04-28T05:49:59.878Z,101200.55
2019-04-28T05:52:51.952Z,101205.78
2019-04-28T05:55:26.596Z,101198.92
2019-04-28T05:58:04.012Z,101198.94
2019-04-28T06:01:01.763Z,101205.48
2019-04-28T06:03:32.436Z,101198.00
2019-04-28T06:06:02.303Z,101192.42
2019-04-28T06:08:44.344Z,101197.14
2019-04-28T06:11:30.637Z,101192.42
2019-04-28T06:14:01.003Z,101191.58
2019-04-28T06:16:30.884Z,101195.92
2019-04-28T06:19:00.771Z,101202.16
2019-04-28T06:21:30.779Z,101203.23
2019-04-28T06:24:00.670Z,101203.23
2019-04-28T06:26:30.611Z,101204.05
2019-04-28T06:29:00.571Z,101195.01
2019-04-28T06:31:30.489Z,101202.39
2019-04-28T06:34:00.608Z,101203.29
2019-04-28T06:36:30.495Z,101197.22
2019-04-28T06:39:00.388Z,101198.09
2019-04-28T06:41:30.343Z,101198.97
2019-04-28T06:44:00.225Z,101206.60
2019-04-28T06:46:30.091Z,101207.52
2019-04-28T06:48:59.978Z,101208.45
2019-04-28T06:51:29.946Z,101211.45
2019-04-28T06:53:59.811Z,101211.47
2019-04-28T06:56:29.699Z,101218.27
2019-04-28T06:58:59.790Z,101227.92
2019-04-28T07:01:29.692Z,101218.83
2019-04-28T07:03:59.588Z,101219.28
2019-04-28T07:06:29.633Z,101223.52
2019-04-28T07:08:59.562Z,101225.61
2019-04-28T07:11:29.475Z,101222.69
2019-04-28T07:13:59.472Z,101229.13
2019-04-28T07:16:29.361Z,101229.17
2019-04-28T07:18:59.437Z,101231.38
2019-04-28T07:21:34.380Z,101237.05
2019-04-28T07:24:04.389Z,101224.94
2019-04-28T07:26:34.291Z,101232.27
2019-04-28T07:29:04.457Z,101233.52
2019-04-28T07:31:37.199Z,101239.48
2019-04-28T07:34:07.252Z,101239.08
2019-04-28T07:36:37.313Z,101244.52
2019-04-28T07:39:08.423Z,101234.77
2019-04-28T07:41:38.394Z,101246.97
2019-04-28T07:44:08.281Z,101243.48
2019-04-28T07:46:38.179Z,101246.94
2019-04-28T07:49:08.370Z,101260.81
2019-04-28T07:51:50.467Z,101261.83
2019-04-28T07:54:21.160Z,101274.39
2019-04-28T07:56:51.076Z,101279.47
2019-04-28T07:59:20.969Z,101284.70
2019-04-28T08:01:51.314Z,101286.06
2019-04-28T08:04:21.296Z,101303.48
2019-04-28T08:06:51.199Z,101296.92
2019-04-28T08:09:21.203Z,101289.40
2019-04-28T08:11:51.402Z,101300.66
2019-04-28T08:14:21.321Z,101303.52
2019-04-28T08:16:51.248Z,101303.08
2019-04-28T08:19:21.148Z,101309.07
2019-04-28T08:21:51.057Z,101315.66
2019-04-28T08:24:21.006Z,101321.53
2019-04-28T08:26:51.009Z,101322.58
2019-04-28T08:29:20.952Z,101325.57
2019-04-28T08:31:57.728Z,101331.20
2019-04-28T08:34:27.665Z,101331.77
2019-04-28T08:36:57.527Z,101337.41
2019-04-28T08:39:27.441Z,101346.72
2019-04-28T08:41:57.303Z,101348.95
2019-04-28T08:44:27.215Z,101349.81
2019-04-28T08:46:57.771Z,101357.47
2019-04-28T08:49:27.654Z,101358.49
2019-04-28T08:51:57.538Z,101357.17
2019-04-28T08:54:27.416Z,101370.02
2019-04-28T08:56:57.307Z,101367.01
2019-04-28T08:59:27.246Z,101364.60
2019-04-28T09:01:57.135Z,101375.90
2019-04-28T09:04:27.170Z,101379.27
2019-04-28T09:06:57.122Z,101371.09
2019-04-28T09:09:27.006Z,101369.97
2019-04-28T09:11:56.919Z,101374.00
2019-04-28T09:14:26.871Z,101380.97
2019-04-28T09:16:56.737Z,101374.64
2019-04-28T09:19:26.677Z,101381.38
2019-04-28T09:21:56.558Z,101377.25
2019-04-28T09:24:26.440Z,101384.29
2019-04-28T09:26:56.665Z,101390.35
2019-04-28T09:29:26.656Z,101384.59
2019-04-28T09:31:56.652Z,101378.70
2019-04-28T09:34:28.537Z,101385.73
2019-04-28T09:36:58.222Z,101388.50
2019-04-28T09:39:51.087Z,101386.42
2019-04-28T09:42:42.358Z,101401.05
2019-04-28T09:45:18.132Z,101403.37
2019-04-28T09:47:48.020Z,101396.86
2019-04-28T09:50:18.137Z,101398.09
2019-04-28T09:52:48.847Z,101404.31
2019-04-28T09:55:18.885Z,101401.62
2019-04-28T09:57:48.792Z,101404.84
2019-04-28T10:00:18.833Z,101408.92
2019-04-28T10:02:48.991Z,101408.02
2019-04-28T10:05:19.241Z,101411.16
2019-04-28T10:07:49.139Z,101404.31
2019-04-28T10:10:19.653Z,101401.30
2019-04-28T10:12:49.533Z,101409.94
2019-04-28T10:15:19.622Z,101407.73
2019-04-28T10:17:49.512Z,101412.34
2019-04-28T10:20:20.501Z,101412.87
2019-04-28T10:22:50.487Z,101422.95
2019-04-28T10:25:21.253Z,101422.05
2019-04-28T10:27:51.239Z,101415.83
2019-04-28T10:30:21.357Z,101418.02
2019-04-28T10:32:51.486Z,101418.79
2019-04-28T10:35:21.748Z,101420.20
2019-04-28T10:37:51.609Z,101422.91
2019-04-28T10:40:39.204Z,101425.23
2019-04-28T10:43:09.342Z,101431.34
2019-04-28T10:45:49.587Z,101427.48
2019-04-28T10:48:19.600Z,101425.29
2019-04-28T10:50:49.529Z,101426.56
2019-04-28T10:53:19.955Z,101415.58
2019-04-28T10:55:49.808Z,101417.34
2019-04-28T10:58:19.684Z,101417.33
2019-04-28T11:00:49.597Z,101430.16
2019-04-28T11:03:19.470Z,101427.50
2019-04-28T11:05:49.344Z,101423.34
2019-04-28T11:08:30.160Z,101415.59
2019-04-28T11:11:03.947Z,101425.08
2019-04-28T11:13:33.847Z,101426.61
2019-04-28T11:16:04.491Z,101426.73
2019-04-28T11:18:35.027Z,101427.92
2019-04-28T11:21:05.692Z,101420.56
2019-04-28T11:23:36.338Z,101431.85
2019-04-28T11:26:06.938Z,101432.28
2019-04-28T11:28:37.915Z,101430.98
2019-04-28T11:31:08.672Z,101431.70
2019-04-28T11:33:45.861Z,101429.18
2019-04-28T11:36:18.391Z,101428.97
2019-04-28T11:38:49.013Z,101433.64
2019-04-28T11:41:19.561Z,101439.55
2019-04-28T11:43:50.088Z,101432.69
2019-04-28T11:46:22.360Z,101434.02
2019-04-28T11:48:52.872Z,101432.00
2019-04-28T11:51:23.400Z,101436.35
2019-04-28T11:53:53.907Z,101437.88
2019-04-28T11:56:24.401Z,101445.65
2019-04-28T11:58:54.874Z,101444.25
2019-04-28T12:01:25.678Z,101442.48
2019-04-28T12:03:59.570Z,101449.49
2019-04-28T12:06:30.077Z,101443.73
2019-04-28T12:09:16.075Z,101453.33
2019-04-28T12:11:49.449Z,101443.96
2019-04-28T12:14:24.332Z,101443.95
2019-04-28T12:17:14.421Z,101443.87
2019-04-28T12:19:47.678Z,101444.09
2019-04-28T12:22:18.306Z,101449.20
2019-04-28T12:24:48.879Z,101447.06
2019-04-28T12:27:19.397Z,101443.25
2019-04-28T12:29:49.933Z,101442.45
2019-04-28T12:32:20.513Z,101448.80
2019-04-28T12:34:51.018Z,101454.98
2019-04-28T12:37:20.851Z,101450.75
2019-04-28T12:39:50.785Z,101452.03
2019-04-28T12:42:20.700Z,101454.05
2019-04-28T12:44:50.602Z,101456.25
2019-04-28T12:47:20.515Z,101455.34
2019-04-28T12:49:55.392Z,101451.12
2019-04-28T12:52:25.339Z,101456.73
2019-04-28T12:54:55.468Z,101459.75
2019-04-28T12:57:25.361Z,101455.41
2019-04-28T13:00:01.226Z,101454.08
2019-04-28T13:02:38.905Z,101460.42
2019-04-28T13:05:12.639Z,101458.60
2019-04-28T13:07:42.561Z,101461.66
2019-04-28T13:10:12.932Z,101464.59
2019-04-28T13:12:42.842Z,101462.47
2019-04-28T13:15:13.546Z,101464.72
2019-04-28T13:17:43.471Z,101461.34
2019-04-28T13:20:14.023Z,101459.59
2019-04-28T13:22:44.167Z,101465.19
2019-04-28T13:25:14.762Z,101459.69
2019-04-28T13:27:45.344Z,101467.91
2019-04-28T13:30:16.213Z,101468.16
2019-04-28T13:32:46.775Z,101463.94
2019-04-28T13:35:17.667Z,101458.88
2019-04-28T13:37:48.409Z,101462.33
2019-04-28T13:40:25.315Z,101464.91
2019-04-28T13:42:55.840Z,101464.95
2019-04-28T13:45:26.836Z,101452.75
2019-04-28T13:47:57.379Z,101464.78
2019-04-28T13:50:32.046Z,101457.17
2019-04-28T13:53:02.648Z,101451.53
2019-04-28T13:55:54.652Z,101448.09
2019-04-28T13:58:29.408Z,101453.27
2019-04-28T14:01:21.740Z,101457.02
2019-04-28T14:04:09.633Z,101451.31
2019-04-28T14:06:43.219Z,101458.41
2019-04-28T14:09:19.550Z,101455.11
2019-04-28T14:11:50.076Z,101455.16
2019-04-28T14:14:20.654Z,101465.07
2019-04-28T14:16:51.223Z,101460.77
2019-04-28T14:19:21.746Z,101468.96
2019-04-28T14:21:52.311Z,101462.21
2019-04-28T14:24:22.872Z,101466.17
2019-04-28T14:26:53.460Z,101468.77
2019-04-28T14:29:24.024Z,101462.34
2019-04-28T14:31:54.693Z,101469.27
2019-04-28T14:34:24.548Z,101462.20
2019-04-28T14:36:54.465Z,101461.08
2019-04-28T14:39:24.477Z,101462.78
2019-04-28T14:41:54.492Z,101467.99
2019-04-28T14:44:24.438Z,101466.27
2019-04-28T14:46:54.342Z,101464.83
2019-04-28T14:49:24.227Z,101475.27
2019-04-28T14:51:54.247Z,101463.58
2019-04-28T14:54:24.144Z,101466.20
2019-04-28T14:56:54.241Z,101464.08
2019-04-28T14:59:24.193Z,101467.09
2019-04-28T15:02:13.124Z,101461.88
2019-04-28T15:05:00.670Z,101464.08
2019-04-28T15:07:48.229Z,101470.55
2019-04-28T15:10:28.666Z,101464.09
2019-04-28T15:12:58.689Z,101470.56
2019-04-28T15:15:28.937Z,101470.11
2019-04-28T15:17:59.027Z,101474.46
2019-04-28T15:20:28.962Z,101475.33
2019-04-28T15:22:59.066Z,101486.53
2019-04-28T15:25:28.964Z,101476.98
2019-04-28T15:27:59.529Z,101477.48
2019-04-28T15:30:30.058Z,101471.43
2019-04-28T15:32:59.985Z,101477.39
2019-04-28T15:35:30.717Z,101474.48
2019-04-28T15:38:00.673Z,101470.59
2019-04-28T15:40:30.632Z,101474.06
2019-04-28T15:43:00.609Z,101479.69
2019-04-28T15:45:30.566Z,101484.02
2019-04-28T15:48:00.740Z,101482.28
2019-04-28T15:50:30.626Z,101479.67
2019-04-28T15:53:00.572Z,101474.91
2019-04-28T15:55:36.684Z,101482.27
2019-04-28T15:58:24.181Z,101479.67
2019-04-28T16:00:54.160Z,101485.33
2019-04-28T16:03:24.057Z,101481.42
2019-04-28T16:05:53.925Z,101478.37
2019-04-28T16:08:23.839Z,101476.64
2019-04-28T16:10:54.138Z,101477.09
2019-04-28T16:13:24.643Z,101472.77
2019-04-28T16:15:55.174Z,101481.41
2019-04-28T16:18:25.843Z,101480.13
2019-04-28T16:20:56.206Z,101478.82
2019-04-28T16:23:26.495Z,101479.69
2019-04-28T16:25:56.657Z,101485.30
2019-04-28T16:28:26.597Z,101493.51
2019-04-28T16:30:56.748Z,101487.89
2019-04-28T16:33:26.692Z,101483.16
2019-04-28T16:35:56.578Z,101486.16
2019-04-28T16:38:26.475Z,101487.48
2019-04-28T16:40:56.622Z,101488.75
2019-04-28T16:43:26.630Z,101483.52
2019-04-28T16:45:56.593Z,101485.66
2019-04-28T16:48:26.668Z,101489.20
2019-04-28T16:50:57.012Z,101490.92
2019-04-28T16:53:26.895Z,101488.35
2019-04-28T16:56:11.640Z,101494.40
2019-04-28T16:58:48.628Z,101496.59
2019-04-28T17:01:49.451Z,101508.26
2019-04-28T17:04:19.431Z,101498.28
2019-04-28T17:06:49.337Z,101502.21
2019-04-28T17:09:19.538Z,101498.29
2019-04-28T17:11:49.445Z,101500.44
2019-04-28T17:14:19.486Z,101500.89
2019-04-28T17:16:49.631Z,101500.05
2019-04-28T17:19:19.590Z,101500.48
2019-04-28T17:21:49.522Z,101499.59
2019-04-28T17:24:19.456Z,101504.75
2019-04-28T17:26:49.352Z,101503.88
2019-04-28T17:29:19.222Z,101508.19
2019-04-28T17:31:49.348Z,101510.86
2019-04-28T17:34:19.307Z,101515.18
2019-04-28T17:36:49.211Z,101516.44
2019-04-28T17:39:21.869Z,101517.70
2019-04-28T17:41:52.590Z,101522.42
2019-04-28T17:44:23.296Z,101520.59
2019-04-28T17:46:53.584Z,101532.11
2019-04-28T17:49:29.442Z,101533.66
2019-04-28T17:51:59.769Z,101528.67
2019-04-28T17:54:29.645Z,101530.45
2019-04-28T17:56:59.527Z,101540.62
2019-04-28T17:59:29.470Z,101552.00
2019-04-28T18:02:33.461Z,101545.88
2019-04-28T18:05:13.898Z,101555.01
2019-04-28T18:07:44.522Z,101558.52
2019-04-28T18:10:14.606Z,101556.03
2019-04-28T18:12:44.569Z,101556.13
2019-04-28T18:15:24.802Z,101556.11
2019-04-28T18:18:03.163Z,101565.11
2019-04-28T18:20:33.028Z,101565.14
2019-04-28T18:23:02.927Z,101575.45
2019-04-28T18:25:32.949Z,101578.02
2019-04-28T18:28:02.824Z,101577.06
2019-04-28T18:30:35.264Z,101581.38
2019-04-28T18:33:22.956Z,101587.13
2019-04-28T18:35:57.205Z,101588.29
2019-04-28T18:38:36.382Z,101586.31
2019-04-28T18:41:25.233Z,101593.78
2019-04-28T18:44:03.935Z,101596.06
2019-04-28T18:46:33.871Z,101596.39
2019-04-28T18:49:03.924Z,101602.70
2019-04-28T18:51:33.904Z,101603.81
2019-04-28T18:54:03.876Z,101611.26
2019-04-28T18:56:33.793Z,101611.03
2019-04-28T18:59:03.840Z,101607.94
2019-04-28T19:01:46.059Z,101609.39
2019-04-28T19:04:15.950Z,101614.53
2019-04-28T19:06:45.853Z,101613.05
2019-04-28T19:09:26.696Z,101611.40
2019-04-28T19:12:15.579Z,101616.20
2019-04-28T19:14:54.564Z,101620.11
2019-04-28T19:17:39.636Z,101620.35
2019-04-28T19:20:10.008Z,101617.59
2019-04-28T19:22:46.901Z,101616.98
2019-04-28T19:25:16.780Z,101621.57
2019-04-28T19:27:46.663Z,101621.99
2019-04-28T19:30:16.750Z,101624.52
2019-04-28T19:32:46.866Z,101624.44
2019-04-28T19:35:16.743Z,101626.73
2019-04-28T19:37:46.607Z,101623.41
2019-04-28T19:40:16.672Z,101625.73
2019-04-28T19:42:46.778Z,101630.69
2019-04-28T19:45:18.754Z,101621.68
2019-04-28T19:47:48.660Z,101626.56
2019-04-28T19:50:18.547Z,101627.17
2019-04-28T19:52:48.488Z,101617.70
2019-04-28T19:55:22.319Z,101622.89
2019-04-28T19:58:10.675Z,101621.93
2019-04-28T20:00:51.139Z,101616.87
2019-04-28T20:03:22.805Z,101619.19
2019-04-28T20:05:52.799Z,101624.42
2019-04-28T20:08:22.772Z,101623.25
2019-04-28T20:10:52.779Z,101624.24
2019-04-28T20:13:22.693Z,101627.30
2019-04-28T20:15:52.586Z,101620.87
2019-04-28T20:18:22.498Z,101627.94
2019-04-28T20:20:52.831Z,101633.55
2019-04-28T20:23:22.731Z,101630.28
2019-04-28T20:25:52.617Z,101635.86
2019-04-28T20:28:23.214Z,101633.89
2019-04-28T20:30:54.161Z,101636.87
2019-04-28T20:33:24.920Z,101639.84
2019-04-28T20:35:58.895Z,101646.06
2019-04-28T20:38:31.277Z,101642.25
2019-04-28T20:41:30.086Z,101645.67
2019-04-28T20:44:00.653Z,101646.06
2019-04-28T20:46:30.924Z,101645.81
2019-04-28T20:49:01.224Z,101640.63
2019-04-28T20:51:31.469Z,101639.66
2019-04-28T20:54:01.423Z,101649.38
2019-04-28T20:56:31.346Z,101644.25
2019-04-28T20:59:01.550Z,101656.03
2019-04-28T21:01:31.576Z,101655.58
2019-04-28T21:04:01.648Z,101655.88
2019-04-28T21:06:32.279Z,101658.44
2019-04-28T21:09:02.420Z,101650.16
2019-04-28T21:11:32.299Z,101650.16
2019-04-28T21:14:03.875Z,101660.36
2019-04-28T21:16:34.135Z,101662.31
2019-04-28T21:19:04.440Z,101656.13
2019-04-28T21:21:34.588Z,101659.12
2019-04-28T21:24:04.701Z,101655.62
2019-04-28T21:26:34.901Z,101660.00
2019-04-28T21:29:04.865Z,101657.77
2019-04-28T21:31:35.437Z,101666.56
2019-04-28T21:34:05.873Z,101662.03
2019-04-28T21:36:35.767Z,101661.41
2019-04-28T21:39:09.138Z,101667.49
2019-04-28T21:41:39.138Z,101662.52
2019-04-28T21:44:20.112Z,101665.09
2019-04-28T21:46:59.324Z,101660.23
2019-04-28T21:49:31.544Z,101666.66
2019-04-28T21:52:01.557Z,101668.98
2019-04-28T21:54:31.455Z,101668.88
2019-04-28T21:57:01.878Z,101667.02
2019-04-28T21:59:32.332Z,101665.52
2019-04-28T22:02:02.299Z,101672.25
2019-04-28T22:04:32.584Z,101670.44
2019-04-28T22:07:03.225Z,101669.62
2019-04-28T22:09:33.166Z,101663.02
2019-04-28T22:12:03.090Z,101668.76
2019-04-28T22:14:33.265Z,101665.80
2019-04-28T22:17:03.270Z,101659.52
2019-04-28T22:19:33.181Z,101666.63
2019-04-28T22:22:03.194Z,101663.78
2019-04-28T22:24:40.940Z,101666.55
2019-04-28T22:27:12.926Z,101662.23
2019-04-28T22:29:42.899Z,101662.07
2019-04-28T22:32:12.803Z,101659.06
2019-04-28T22:34:42.675Z,101656.55
2019-04-28T22:37:12.525Z,101651.39
2019-04-28T22:39:42.412Z,101649.05
2019-04-28T22:42:12.483Z,101646.39
2019-04-28T22:44:42.373Z,101648.38
2019-04-28T22:47:12.267Z,101654.23
2019-04-28T22:49:42.159Z,101651.07
2019-04-28T22:52:12.041Z,101653.08
2019-04-28T22:55:00.883Z,101650.69
2019-04-28T22:57:52.921Z,101651.16
2019-04-28T23:00:46.529Z,101652.51
2019-04-28T23:03:27.257Z,101646.91
2019-04-28T23:05:58.420Z,101645.03
2019-04-28T23:08:28.560Z,101646.55
2019-04-28T23:11:00.060Z,101644.41
2019-04-28T23:13:30.075Z,101641.60
2019-04-28T23:16:00.226Z,101638.91
2019-04-28T23:18:38.985Z,101639.38
2019-04-28T23:21:17.356Z,101640.20
2019-04-28T23:23:47.246Z,101631.05
2019-04-28T23:26:17.197Z,101638.95
2019-04-28T23:28:47.075Z,101630.61
2019-04-28T23:31:16.938Z,101631.00
2019-04-28T23:33:46.805Z,101631.69
2019-04-28T23:36:16.676Z,101633.61
2019-04-28T23:38:46.544Z,101636.11
2019-04-28T23:41:24.705Z,101635.48
2019-04-28T23:43:54.575Z,101635.34
2019-04-28T23:46:26.096Z,101632.47
2019-04-28T23:48:56.233Z,101636.32
2019-04-28T23:51:38.928Z,101630.42
2019-04-28T23:54:08.791Z,101630.94
2019-04-28T23:56:38.662Z,101629.71
2019-04-28T23:59:08.610Z,101626.19
